createdAt,value
2019-04-10T00:00:21.005Z,13.10
2019-04-10T00:01:20.049Z,12.80
2019-04-10T00:02:20.095Z,12.60
2019-04-10T00:03:27.929Z,12.90
2019-04-10T00:04:21.068Z,12.90
2019-04-10T00:05:20.199Z,13.30
2019-04-10T00:06:20.239Z,13.00
2019-04-10T00:07:21.160Z,13.10
2019-04-10T00:08:20.314Z,12.70
2019-04-10T00:09:21.045Z,12.70
2019-04-10T00:10:21.446Z,13.00
2019-04-10T00:11:20.713Z,12.30
2019-04-10T00:12:21.225Z,13.10
2019-04-10T00:13:20.604Z,12.40
2019-04-10T00:14:20.569Z,13.00
2019-04-10T00:15:20.582Z,13.00
2019-04-10T00:16:21.051Z,13.10
2019-04-10T00:17:20.783Z,13.10
2019-04-10T00:18:20.699Z,12.80
2019-04-10T00:19:20.735Z,12.80
2019-04-10T00:20:20.773Z,12.80
2019-04-10T00:21:21.030Z,13.00
2019-04-10T00:22:20.847Z,13.10
2019-04-10T00:23:20.887Z,12.50
2019-04-10T00:24:21.904Z,12.50
2019-04-10T00:25:20.970Z,13.50
2019-04-10T00:26:21.642Z,12.70
2019-04-10T00:27:21.041Z,13.60
2019-04-10T00:28:21.281Z,12.80
2019-04-10T00:29:21.114Z,12.80
2019-04-10T00:30:21.172Z,12.30
2019-04-10T00:31:22.812Z,12.40
2019-04-10T00:32:21.629Z,13.40
2019-04-10T00:33:21.271Z,12.80
2019-04-10T00:34:21.305Z,13.20
2019-04-10T00:35:21.506Z,12.40
2019-04-10T00:36:21.383Z,13.00
2019-04-10T00:37:26.701Z,12.40
2019-04-10T00:38:21.807Z,12.80
2019-04-10T00:39:22.313Z,13.00
2019-04-10T00:40:21.534Z,12.70
2019-04-10T00:41:21.835Z,12.80
2019-04-10T00:42:21.619Z,12.90
2019-04-10T00:43:22.574Z,13.50
2019-04-10T00:44:21.713Z,12.80
2019-04-10T00:45:21.734Z,13.50
2019-04-10T00:46:22.151Z,12.80
2019-04-10T00:47:21.802Z,12.60
2019-04-10T00:48:21.852Z,12.90
2019-04-10T00:49:21.876Z,13.00
2019-04-10T00:50:22.299Z,13.70
2019-04-10T00:51:21.963Z,13.80
2019-04-10T00:52:21.990Z,13.30
2019-04-10T00:53:23.149Z,13.80
2019-04-10T00:54:22.069Z,13.30
2019-04-10T00:55:22.104Z,13.60
2019-04-10T00:56:22.140Z,14.00
2019-04-10T00:57:23.432Z,13.00
2019-04-10T00:58:22.578Z,13.40
2019-04-10T00:59:22.259Z,13.40
2019-04-10T01:00:23.525Z,14.30
2019-04-10T01:01:23.557Z,13.30
2019-04-10T01:02:22.656Z,13.40
2019-04-10T01:03:23.533Z,13.50
2019-04-10T01:04:22.446Z,13.90
2019-04-10T01:05:22.912Z,13.80
2019-04-10T01:06:22.521Z,13.80
2019-04-10T01:07:32.616Z,13.80
2019-04-10T01:08:22.602Z,13.50
2019-04-10T01:09:23.674Z,12.90
2019-04-10T01:10:22.671Z,13.20
2019-04-10T01:11:23.170Z,13.20
2019-04-10T01:12:23.643Z,13.50
2019-04-10T01:13:23.010Z,13.10
2019-04-10T01:14:23.411Z,14.40
2019-04-10T01:15:22.865Z,13.80
2019-04-10T01:16:23.146Z,14.00
2019-04-10T01:17:22.941Z,14.20
2019-04-10T01:18:23.395Z,13.80
2019-04-10T01:19:23.875Z,14.40
2019-04-10T01:20:23.794Z,13.70
2019-04-10T01:21:23.192Z,14.40
2019-04-10T01:22:24.034Z,13.90
2019-04-10T01:23:23.166Z,14.80
2019-04-10T01:24:23.760Z,14.40
2019-04-10T01:25:24.147Z,14.50
2019-04-10T01:26:23.433Z,14.60
2019-04-10T01:27:23.673Z,14.90
2019-04-10T01:28:23.356Z,14.40
2019-04-10T01:29:23.396Z,14.80
2019-04-10T01:30:24.334Z,14.40
2019-04-10T01:31:23.475Z,14.50
2019-04-10T01:32:23.806Z,14.60
2019-04-10T01:33:23.555Z,14.90
2019-04-10T01:34:23.593Z,14.60
2019-04-10T01:35:24.536Z,14.70
2019-04-10T01:36:23.842Z,15.00
2019-04-10T01:37:23.695Z,15.10
2019-04-10T01:38:23.733Z,15.90
2019-04-10T01:39:24.338Z,14.60
2019-04-10T01:40:23.806Z,15.00
2019-04-10T01:41:23.938Z,16.10
2019-04-10T01:42:24.677Z,15.20
2019-04-10T01:43:24.549Z,14.80
2019-04-10T01:44:24.702Z,16.20
2019-04-10T01:45:25.062Z,16.50
2019-04-10T01:46:24.407Z,16.10
2019-04-10T01:47:24.072Z,15.80
2019-04-10T01:48:24.111Z,16.40
2019-04-10T01:49:24.147Z,15.90
2019-04-10T01:50:24.434Z,16.00
2019-04-10T01:51:24.229Z,16.50
2019-04-10T01:52:24.800Z,15.90
2019-04-10T01:53:24.298Z,16.60
2019-04-10T01:54:24.854Z,16.30
2019-04-10T01:55:28.091Z,16.60
2019-04-10T01:56:30.194Z,15.70
2019-04-10T01:57:24.461Z,16.10
2019-04-10T01:58:25.291Z,17.10
2019-04-10T01:59:25.576Z,16.70
2019-04-10T02:00:25.678Z,16.70
2019-04-10T02:01:24.602Z,16.40
2019-04-10T02:02:25.342Z,16.40
2019-04-10T02:03:25.653Z,17.00
2019-04-10T02:04:24.842Z,16.20
2019-04-10T02:05:24.877Z,17.00
2019-04-10T02:06:25.325Z,17.70
2019-04-10T02:07:24.827Z,17.00
2019-04-10T02:08:25.775Z,17.10
2019-04-10T02:09:25.631Z,17.60
2019-04-10T02:10:25.876Z,16.70
2019-04-10T02:11:25.934Z,17.20
2019-04-10T02:12:25.012Z,17.00
2019-04-10T02:13:25.456Z,17.80
2019-04-10T02:14:25.090Z,16.80
2019-04-10T02:15:25.994Z,17.30
2019-04-10T02:16:25.590Z,17.80
2019-04-10T02:17:25.421Z,18.70
2019-04-10T02:18:25.522Z,18.50
2019-04-10T02:19:26.085Z,18.30
2019-04-10T02:20:25.315Z,18.60
2019-04-10T02:21:25.541Z,18.50
2019-04-10T02:22:25.390Z,18.60
2019-04-10T02:23:26.063Z,18.60
2019-04-10T02:24:25.465Z,18.70
2019-04-10T02:25:25.499Z,18.90
2019-04-10T02:26:25.627Z,18.90
2019-04-10T02:27:26.625Z,19.00
2019-04-10T02:28:25.613Z,18.90
2019-04-10T02:29:25.943Z,19.60
2019-04-10T02:30:26.166Z,20.30
2019-04-10T02:31:26.491Z,20.20
2019-04-10T02:32:26.515Z,19.90
2019-04-10T02:33:27.469Z,19.50
2019-04-10T02:34:25.863Z,20.00
2019-04-10T02:35:27.319Z,20.90
2019-04-10T02:36:27.781Z,20.70
2019-04-10T02:37:27.103Z,20.80
2019-04-10T02:38:43.042Z,20.80
2019-04-10T02:39:35.157Z,20.80
2019-04-10T02:40:26.071Z,20.50
2019-04-10T02:41:27.806Z,20.30
2019-04-10T02:42:26.787Z,21.20
2019-04-10T02:43:27.306Z,21.30
2019-04-10T02:44:28.286Z,21.40
2019-04-10T02:45:26.251Z,21.10
2019-04-10T02:46:26.920Z,20.80
2019-04-10T02:47:26.568Z,21.40
2019-04-10T02:48:27.552Z,21.50
2019-04-10T02:49:27.860Z,20.90
2019-04-10T02:50:27.286Z,21.10
2019-04-10T02:51:27.056Z,21.40
2019-04-10T02:52:26.512Z,20.90
2019-04-10T02:53:27.652Z,21.60
2019-04-10T02:54:27.058Z,21.70
2019-04-10T02:55:27.258Z,21.40
2019-04-10T02:56:28.450Z,21.20
2019-04-10T02:57:27.605Z,21.70
2019-04-10T02:58:26.756Z,20.70
2019-04-10T02:59:27.098Z,21.30
2019-04-10T03:00:28.170Z,21.10
2019-04-10T03:01:27.287Z,21.20
2019-04-10T03:02:28.813Z,21.30
2019-04-10T03:03:27.611Z,21.90
2019-04-10T03:04:26.960Z,21.40
2019-04-10T03:05:27.458Z,21.70
2019-04-10T03:06:27.311Z,21.80
2019-04-10T03:07:28.338Z,21.90
2019-04-10T03:08:43.109Z,21.20
2019-04-10T03:09:43.232Z,22.10
2019-04-10T03:10:38.249Z,21.00
2019-04-10T03:11:27.966Z,20.60
2019-04-10T03:12:28.392Z,20.80
2019-04-10T03:13:28.902Z,20.90
2019-04-10T03:14:28.455Z,20.40
2019-04-10T03:15:27.384Z,20.10
2019-04-10T03:16:27.410Z,19.50
2019-04-10T03:17:28.189Z,19.80
2019-04-10T03:18:28.245Z,20.80
2019-04-10T03:19:27.708Z,20.00
2019-04-10T03:20:27.557Z,19.90
2019-04-10T03:21:27.594Z,21.00
2019-04-10T03:22:27.658Z,20.20
2019-04-10T03:23:27.671Z,19.00
2019-04-10T03:24:27.729Z,19.50
2019-04-10T03:25:28.770Z,19.60
2019-04-10T03:26:27.947Z,19.90
2019-04-10T03:27:28.114Z,19.50
2019-04-10T03:28:27.859Z,19.60
2019-04-10T03:29:27.893Z,19.90
2019-04-10T03:30:29.638Z,19.00
2019-04-10T03:31:30.068Z,20.30
2019-04-10T03:32:33.266Z,19.70
2019-04-10T03:33:31.085Z,20.50
2019-04-10T03:34:30.669Z,20.20
2019-04-10T03:35:28.124Z,20.90
2019-04-10T03:36:28.154Z,20.40
2019-04-10T03:37:28.586Z,20.00
2019-04-10T03:38:28.236Z,20.70
2019-04-10T03:39:28.284Z,20.10
2019-04-10T03:40:29.236Z,20.00
2019-04-10T03:41:28.343Z,20.50
2019-04-10T03:42:28.665Z,19.80
2019-04-10T03:43:28.417Z,19.30
2019-04-10T03:44:28.452Z,20.40
2019-04-10T03:45:28.604Z,19.80
2019-04-10T03:46:28.527Z,19.60
2019-04-10T03:47:28.574Z,20.50
2019-04-10T03:48:29.268Z,19.80
2019-04-10T03:49:29.658Z,19.80
2019-04-10T03:50:29.907Z,20.50
2019-04-10T03:51:28.714Z,20.60
2019-04-10T03:52:29.401Z,20.60
2019-04-10T03:53:29.852Z,20.90
2019-04-10T03:54:28.827Z,20.70
2019-04-10T03:55:29.253Z,20.10
2019-04-10T03:56:29.706Z,19.00
2019-04-10T03:57:28.935Z,20.50
2019-04-10T03:58:28.973Z,20.50
2019-04-10T03:59:29.011Z,20.10
2019-04-10T04:00:30.006Z,19.90
2019-04-10T04:01:29.161Z,20.50
2019-04-10T04:02:29.490Z,20.80
2019-04-10T04:03:29.158Z,20.60
2019-04-10T04:04:29.277Z,21.30
2019-04-10T04:05:29.233Z,20.60
2019-04-10T04:06:29.269Z,20.60
2019-04-10T04:07:30.405Z,20.60
2019-04-10T04:08:29.836Z,20.80
2019-04-10T04:09:29.466Z,20.60
2019-04-10T04:10:29.422Z,20.90
2019-04-10T04:11:29.457Z,20.60
2019-04-10T04:12:29.498Z,21.10
2019-04-10T04:13:29.531Z,21.00
2019-04-10T04:14:30.502Z,21.10
2019-04-10T04:15:30.343Z,22.10
2019-04-10T04:16:29.640Z,21.10
2019-04-10T04:17:30.456Z,22.00
2019-04-10T04:18:29.717Z,21.10
2019-04-10T04:19:30.954Z,21.70
2019-04-10T04:20:30.709Z,21.30
2019-04-10T04:21:29.975Z,21.50
2019-04-10T04:22:30.621Z,21.00
2019-04-10T04:23:29.903Z,21.20
2019-04-10T04:24:29.937Z,20.60
2019-04-10T04:25:30.386Z,21.80
2019-04-10T04:26:30.026Z,21.20
2019-04-10T04:27:30.049Z,21.50
2019-04-10T04:28:30.088Z,21.10
2019-04-10T04:29:30.368Z,21.60
2019-04-10T04:30:30.159Z,22.30
2019-04-10T04:31:31.172Z,22.30
2019-04-10T04:32:30.239Z,22.20
2019-04-10T04:33:30.271Z,22.40
2019-04-10T04:34:31.297Z,22.10
2019-04-10T04:35:30.344Z,22.20
2019-04-10T04:36:30.961Z,21.70
2019-04-10T04:37:30.418Z,22.20
2019-04-10T04:38:30.458Z,21.60
2019-04-10T04:39:31.452Z,21.60
2019-04-10T04:40:30.531Z,21.90
2019-04-10T04:41:31.586Z,22.10
2019-04-10T04:42:30.733Z,21.90
2019-04-10T04:43:30.651Z,21.90
2019-04-10T04:44:31.120Z,22.50
2019-04-10T04:45:30.717Z,21.80
2019-04-10T04:46:30.752Z,21.40
2019-04-10T04:47:31.057Z,21.90
2019-04-10T04:48:31.837Z,22.00
2019-04-10T04:49:31.108Z,21.60
2019-04-10T04:50:31.280Z,21.70
2019-04-10T04:51:30.938Z,22.50
2019-04-10T04:52:30.974Z,22.70
2019-04-10T04:53:32.153Z,22.10
2019-04-10T04:54:31.072Z,22.80
2019-04-10T04:55:31.093Z,22.30
2019-04-10T04:56:31.725Z,22.60
2019-04-10T04:57:33.810Z,22.50
2019-04-10T04:58:31.202Z,22.40
2019-04-10T04:59:32.248Z,22.40
2019-04-10T05:00:32.017Z,22.00
2019-04-10T05:01:31.803Z,22.60
2019-04-10T05:02:32.162Z,22.60
2019-04-10T05:03:31.384Z,23.40
2019-04-10T05:04:32.426Z,23.90
2019-04-10T05:05:31.456Z,22.30
2019-04-10T05:06:31.494Z,23.10
2019-04-10T05:07:31.533Z,23.20
2019-04-10T05:08:32.370Z,23.90
2019-04-10T05:09:37.184Z,23.60
2019-04-10T05:10:31.642Z,23.40
2019-04-10T05:11:31.678Z,24.20
2019-04-10T05:12:31.871Z,23.20
2019-04-10T05:13:32.706Z,22.70
2019-04-10T05:14:31.789Z,22.50
2019-04-10T05:15:31.837Z,24.10
2019-04-10T05:16:32.812Z,23.50
2019-04-10T05:17:32.965Z,23.10
2019-04-10T05:18:31.942Z,23.70
2019-04-10T05:19:32.007Z,23.40
2019-04-10T05:20:41.198Z,23.50
2019-04-10T05:21:32.845Z,24.00
2019-04-10T05:22:32.085Z,22.50
2019-04-10T05:23:33.075Z,23.50
2019-04-10T05:24:32.159Z,23.80
2019-04-10T05:25:32.203Z,23.50
2019-04-10T05:26:32.390Z,23.10
2019-04-10T05:27:33.066Z,22.70
2019-04-10T05:28:32.734Z,24.00
2019-04-10T05:29:32.438Z,23.00
2019-04-10T05:30:33.416Z,23.80
2019-04-10T05:31:32.418Z,23.30
2019-04-10T05:32:32.958Z,22.80
2019-04-10T05:33:33.195Z,24.50
2019-04-10T05:34:32.541Z,24.50
2019-04-10T05:35:32.569Z,24.00
2019-04-10T05:36:33.507Z,24.30
2019-04-10T05:37:33.564Z,23.40
2019-04-10T05:38:33.387Z,23.70
2019-04-10T05:39:41.997Z,24.10
2019-04-10T05:40:33.263Z,24.00
2019-04-10T05:41:33.559Z,23.60
2019-04-10T05:42:33.059Z,23.80
2019-04-10T05:43:32.869Z,23.30
2019-04-10T05:44:33.940Z,23.60
2019-04-10T05:45:33.850Z,24.20
2019-04-10T05:46:32.975Z,24.10
2019-04-10T05:47:33.013Z,24.30
2019-04-10T05:48:33.454Z,23.70
2019-04-10T05:49:33.234Z,23.50
2019-04-10T05:50:33.134Z,24.10
2019-04-10T05:51:33.165Z,23.90
2019-04-10T05:52:33.291Z,24.30
2019-04-10T05:53:34.468Z,23.90
2019-04-10T05:54:33.388Z,23.70
2019-04-10T05:55:33.313Z,24.10
2019-04-10T05:56:34.329Z,23.90
2019-04-10T05:57:33.384Z,23.40
2019-04-10T05:58:33.424Z,23.20
2019-04-10T05:59:34.288Z,24.00
2019-04-10T06:00:34.530Z,24.40
2019-04-10T06:01:38.074Z,23.40
2019-04-10T06:02:34.166Z,24.00
2019-04-10T06:03:33.607Z,25.70
2019-04-10T06:04:33.660Z,25.10
2019-04-10T06:05:34.188Z,23.50
2019-04-10T06:06:34.623Z,24.10
2019-04-10T06:07:33.762Z,23.70
2019-04-10T06:08:33.794Z,26.70
2019-04-10T06:09:33.839Z,25.40
2019-04-10T06:10:34.223Z,24.10
2019-04-10T06:11:35.069Z,23.90
2019-04-10T06:12:34.163Z,22.00
2019-04-10T06:13:34.764Z,23.40
2019-04-10T06:14:34.511Z,24.10
2019-04-10T06:15:35.059Z,23.90
2019-04-10T06:16:34.369Z,23.70
2019-04-10T06:17:34.365Z,23.00
2019-04-10T06:18:35.239Z,22.30
2019-04-10T06:19:34.433Z,22.40
2019-04-10T06:20:35.433Z,22.20
2019-04-10T06:21:35.399Z,23.10
2019-04-10T06:22:34.770Z,22.90
2019-04-10T06:23:34.356Z,22.90
2019-04-10T06:24:34.393Z,22.40
2019-04-10T06:25:36.578Z,24.30
2019-04-10T06:26:35.471Z,23.70
2019-04-10T06:27:34.721Z,23.20
2019-04-10T06:28:34.639Z,22.90
2019-04-10T06:29:35.140Z,24.10
2019-04-10T06:30:34.617Z,23.00
2019-04-10T06:31:34.731Z,22.60
2019-04-10T06:32:34.791Z,23.10
2019-04-10T06:33:34.734Z,22.80
2019-04-10T06:34:34.770Z,23.00
2019-04-10T06:35:35.620Z,23.50
2019-04-10T06:36:35.530Z,21.90
2019-04-10T06:37:34.880Z,23.80
2019-04-10T06:38:35.097Z,22.20
2019-04-10T06:39:35.278Z,22.60
2019-04-10T06:40:35.543Z,22.20
2019-04-10T06:41:35.038Z,22.40
2019-04-10T06:42:46.530Z,23.10
2019-04-10T06:43:35.106Z,22.10
2019-04-10T06:44:36.301Z,20.80
2019-04-10T06:45:35.727Z,22.20
2019-04-10T06:46:37.604Z,21.70
2019-04-10T06:47:36.166Z,22.30
2019-04-10T06:48:36.266Z,21.30
2019-04-10T06:49:36.504Z,19.70
2019-04-10T06:50:35.373Z,20.10
2019-04-10T06:51:35.541Z,20.20
2019-04-10T06:52:35.571Z,20.40
2019-04-10T06:53:35.483Z,19.50
2019-04-10T06:54:36.439Z,20.90
2019-04-10T06:55:36.486Z,20.40
2019-04-10T06:56:35.607Z,20.90
2019-04-10T06:57:48.132Z,20.20
2019-04-10T06:58:36.100Z,20.00
2019-04-10T06:59:35.712Z,19.60
2019-04-10T07:00:36.819Z,19.50
2019-04-10T07:01:46.010Z,19.30
2019-04-10T07:02:37.093Z,18.20
2019-04-10T07:03:50.123Z,19.60
2019-04-10T07:04:43.935Z,18.70
2019-04-10T07:05:41.396Z,18.70
2019-04-10T07:06:50.040Z,19.50
2019-04-10T07:07:49.597Z,19.40
2019-04-10T07:08:36.127Z,18.80
2019-04-10T07:09:36.133Z,18.40
2019-04-10T07:10:48.294Z,19.90
2019-04-10T07:11:36.592Z,20.00
2019-04-10T07:12:37.411Z,18.40
2019-04-10T07:13:39.481Z,18.60
2019-04-10T07:14:37.935Z,17.90
2019-04-10T07:15:36.317Z,18.30
2019-04-10T07:16:37.318Z,18.20
2019-04-10T07:17:40.341Z,18.10
2019-04-10T07:18:38.213Z,18.60
2019-04-10T07:19:36.521Z,18.30
2019-04-10T07:20:36.508Z,17.70
2019-04-10T07:21:37.564Z,17.80
2019-04-10T07:22:36.668Z,17.50
2019-04-10T07:23:36.655Z,17.30
2019-04-10T07:24:39.568Z,18.20
2019-04-10T07:25:37.511Z,16.80
2019-04-10T07:26:41.688Z,18.20
2019-04-10T07:27:38.594Z,17.10
2019-04-10T07:28:39.005Z,16.90
2019-04-10T07:29:36.851Z,16.90
2019-04-10T07:30:38.004Z,17.40
2019-04-10T07:31:38.253Z,17.00
2019-04-10T07:32:42.084Z,16.70
2019-04-10T07:33:37.118Z,16.70
2019-04-10T07:34:37.223Z,17.20
2019-04-10T07:35:38.237Z,16.90
2019-04-10T07:36:39.923Z,17.00
2019-04-10T07:37:37.220Z,16.50
2019-04-10T07:38:37.262Z,16.70
2019-04-10T07:39:37.507Z,17.20
2019-04-10T07:40:37.271Z,17.40
2019-04-10T07:41:37.756Z,16.40
2019-04-10T07:42:40.286Z,17.00
2019-04-10T07:43:38.547Z,17.00
2019-04-10T07:44:37.427Z,16.90
2019-04-10T07:45:37.469Z,15.60
2019-04-10T07:46:38.209Z,16.80
2019-04-10T07:47:37.974Z,16.30
2019-04-10T07:48:37.822Z,15.80
2019-04-10T07:49:39.525Z,16.60
2019-04-10T07:50:37.662Z,16.20
2019-04-10T07:51:38.817Z,15.20
2019-04-10T07:52:37.745Z,15.10
2019-04-10T07:53:37.769Z,16.80
2019-04-10T07:54:38.954Z,16.70
2019-04-10T07:55:37.845Z,16.00
2019-04-10T07:56:37.884Z,15.00
2019-04-10T07:57:38.499Z,16.30
2019-04-10T07:58:37.960Z,14.00
2019-04-10T07:59:37.999Z,13.20
2019-04-10T08:00:38.044Z,16.10
2019-04-10T08:01:38.076Z,14.80
2019-04-10T08:02:38.525Z,14.90
2019-04-10T08:03:38.160Z,16.20
2019-04-10T08:04:38.191Z,14.70
2019-04-10T08:05:38.237Z,16.00
2019-04-10T08:06:39.449Z,13.50
2019-04-10T08:07:39.297Z,14.20
2019-04-10T08:08:38.401Z,14.20
2019-04-10T08:09:38.397Z,14.60
2019-04-10T08:10:38.423Z,13.80
2019-04-10T08:11:38.459Z,12.80
2019-04-10T08:12:45.873Z,15.20
2019-04-10T08:13:38.556Z,15.40
2019-04-10T08:14:38.574Z,15.00
2019-04-10T08:15:38.627Z,14.40
2019-04-10T08:16:39.348Z,15.10
2019-04-10T08:17:39.052Z,13.60
2019-04-10T08:18:39.432Z,15.60
2019-04-10T08:19:39.081Z,15.00
2019-04-10T08:20:38.805Z,15.30
2019-04-10T08:21:38.840Z,14.70
2019-04-10T08:22:39.345Z,13.20
2019-04-10T08:23:39.016Z,15.30
2019-04-10T08:24:38.964Z,14.90
2019-04-10T08:25:38.997Z,15.50
2019-04-10T08:26:39.036Z,16.10
2019-04-10T08:27:39.079Z,15.70
2019-04-10T08:28:39.119Z,15.80
2019-04-10T08:29:39.466Z,16.00
2019-04-10T08:30:39.818Z,14.90
2019-04-10T08:31:39.656Z,14.90
2019-04-10T08:32:50.912Z,15.40
2019-04-10T08:33:39.305Z,14.10
2019-04-10T08:34:40.051Z,14.50
2019-04-10T08:35:39.865Z,14.90
2019-04-10T08:36:39.571Z,15.10
2019-04-10T08:37:39.481Z,14.90
2019-04-10T08:38:40.091Z,14.60
2019-04-10T08:39:42.970Z,14.90
2019-04-10T08:40:40.392Z,15.50
2019-04-10T08:41:39.611Z,15.80
2019-04-10T08:42:40.733Z,15.80
2019-04-10T08:43:39.752Z,15.50
2019-04-10T08:44:40.347Z,14.90
2019-04-10T08:45:46.638Z,15.70
2019-04-10T08:46:39.878Z,16.00
2019-04-10T08:47:39.853Z,15.70
2019-04-10T08:48:39.879Z,15.00
2019-04-10T08:49:41.050Z,16.00
2019-04-10T08:50:39.960Z,16.20
2019-04-10T08:51:39.997Z,14.30
2019-04-10T08:52:41.070Z,14.90
2019-04-10T08:53:40.077Z,14.10
2019-04-10T08:54:40.504Z,15.70
2019-04-10T08:55:40.151Z,15.10
2019-04-10T08:56:40.769Z,15.00
2019-04-10T08:57:40.227Z,15.40
2019-04-10T08:58:41.265Z,15.60
2019-04-10T08:59:40.306Z,14.40
2019-04-10T09:00:40.716Z,15.40
2019-04-10T09:01:40.386Z,16.00
2019-04-10T09:02:40.423Z,15.50
2019-04-10T09:03:41.276Z,13.70
2019-04-10T09:04:41.304Z,14.40
2019-04-10T09:05:40.554Z,15.70
2019-04-10T09:06:40.578Z,15.60
2019-04-10T09:07:40.620Z,15.90
2019-04-10T09:08:41.986Z,14.00
2019-04-10T09:09:41.550Z,15.90
2019-04-10T09:10:40.748Z,15.20
2019-04-10T09:11:41.063Z,14.90
2019-04-10T09:12:41.167Z,16.60
2019-04-10T09:13:41.014Z,17.50
2019-04-10T09:14:41.309Z,16.40
2019-04-10T09:15:40.926Z,18.20
2019-04-10T09:16:40.966Z,16.20
2019-04-10T09:17:41.747Z,15.30
2019-04-10T09:18:41.258Z,18.30
2019-04-10T09:19:42.122Z,16.40
2019-04-10T09:20:41.125Z,14.60
2019-04-10T09:21:41.692Z,15.50
2019-04-10T09:23:05.101Z,15.90
2019-04-10T09:23:47.327Z,15.70
2019-04-10T09:24:42.434Z,15.40
2019-04-10T09:25:41.618Z,14.60
2019-04-10T09:26:41.357Z,14.20
2019-04-10T09:27:42.744Z,14.90
2019-04-10T09:28:42.430Z,14.60
2019-04-10T09:29:42.402Z,15.80
2019-04-10T09:30:42.563Z,15.90
2019-04-10T09:31:41.900Z,17.30
2019-04-10T09:32:42.400Z,16.10
2019-04-10T09:33:41.636Z,15.40
2019-04-10T09:34:42.475Z,15.30
2019-04-10T09:35:41.725Z,13.30
2019-04-10T09:36:41.815Z,14.70
2019-04-10T09:37:42.099Z,15.00
2019-04-10T09:38:43.913Z,14.60
2019-04-10T09:39:41.876Z,15.00
2019-04-10T09:40:42.538Z,14.70
2019-04-10T09:41:41.956Z,14.90
2019-04-10T09:42:41.993Z,15.40
2019-04-10T09:43:42.177Z,13.30
2019-04-10T09:44:42.197Z,14.90
2019-04-10T09:45:42.126Z,15.00
2019-04-10T09:46:42.872Z,14.80
2019-04-10T09:47:42.194Z,14.80
2019-04-10T09:48:42.231Z,14.90
2019-04-10T09:49:46.166Z,15.10
2019-04-10T09:50:42.313Z,14.80
2019-04-10T09:51:42.498Z,14.80
2019-04-10T09:52:42.391Z,15.50
2019-04-10T09:53:43.340Z,15.50
2019-04-10T09:54:42.602Z,15.20
2019-04-10T09:55:42.638Z,15.50
2019-04-10T09:56:42.551Z,15.40
2019-04-10T09:57:43.080Z,14.90
2019-04-10T09:58:42.764Z,15.30
2019-04-10T09:59:42.789Z,16.00
2019-04-10T10:00:43.731Z,15.50
2019-04-10T10:01:42.755Z,15.00
2019-04-10T10:02:42.803Z,15.60
2019-04-10T10:03:42.835Z,15.30
2019-04-10T10:04:43.884Z,15.20
2019-04-10T10:05:42.928Z,15.60
2019-04-10T10:06:43.230Z,15.50
2019-04-10T10:07:43.110Z,14.70
2019-04-10T10:08:43.685Z,14.50
2019-04-10T10:09:43.231Z,14.50
2019-04-10T10:10:43.120Z,14.20
2019-04-10T10:11:43.159Z,15.20
2019-04-10T10:12:43.208Z,14.30
2019-04-10T10:13:43.247Z,14.50
2019-04-10T10:14:44.265Z,14.50
2019-04-10T10:15:43.324Z,14.10
2019-04-10T10:16:44.216Z,13.60
2019-04-10T10:17:44.494Z,15.30
2019-04-10T10:18:43.702Z,16.00
2019-04-10T10:19:43.488Z,14.60
2019-04-10T10:20:43.989Z,15.00
2019-04-10T10:21:43.567Z,14.80
2019-04-10T10:22:43.609Z,14.20
2019-04-10T10:23:44.646Z,13.80
2019-04-10T10:24:43.722Z,14.50
2019-04-10T10:25:43.767Z,15.50
2019-04-10T10:26:46.117Z,13.80
2019-04-10T10:27:44.737Z,14.70
2019-04-10T10:28:44.989Z,15.40
2019-04-10T10:29:44.142Z,14.70
2019-04-10T10:30:44.066Z,15.20
2019-04-10T10:31:44.453Z,15.50
2019-04-10T10:32:44.031Z,14.60
2019-04-10T10:33:44.065Z,13.70
2019-04-10T10:34:44.897Z,15.20
2019-04-10T10:35:44.168Z,13.60
2019-04-10T10:36:47.389Z,13.60
2019-04-10T10:37:44.227Z,14.00
2019-04-10T10:38:45.397Z,14.00
2019-04-10T10:39:45.154Z,13.90
2019-04-10T10:40:44.352Z,13.90
2019-04-10T10:41:44.715Z,13.60
2019-04-10T10:42:45.548Z,13.60
2019-04-10T10:43:44.685Z,14.40
2019-04-10T10:44:44.519Z,14.00
2019-04-10T10:45:45.025Z,13.80
2019-04-10T10:46:44.610Z,15.30
2019-04-10T10:47:44.654Z,13.90
2019-04-10T10:48:44.682Z,13.10
2019-04-10T10:49:44.731Z,14.10
2019-04-10T10:50:45.663Z,13.90
2019-04-10T10:51:44.807Z,14.20
2019-04-10T10:52:45.850Z,13.60
2019-04-10T10:53:44.888Z,13.90
2019-04-10T10:54:45.217Z,13.50
2019-04-10T10:55:45.499Z,13.80
2019-04-10T10:56:45.011Z,13.70
2019-04-10T10:57:45.054Z,14.40
2019-04-10T10:58:46.053Z,13.50
2019-04-10T10:59:46.030Z,13.30
2019-04-10T11:00:45.235Z,14.80
2019-04-10T11:01:46.303Z,13.40
2019-04-10T11:02:45.550Z,13.10
2019-04-10T11:03:45.316Z,13.50
2019-04-10T11:04:45.419Z,13.40
2019-04-10T11:05:46.439Z,13.90
2019-04-10T11:06:55.231Z,13.20
2019-04-10T11:07:45.464Z,14.10
2019-04-10T11:08:45.884Z,13.80
2019-04-10T11:09:45.548Z,13.30
2019-04-10T11:10:48.927Z,13.90
2019-04-10T11:11:45.629Z,14.00
2019-04-10T11:12:46.607Z,13.80
2019-04-10T11:13:46.923Z,14.50
2019-04-10T11:14:45.756Z,13.90
2019-04-10T11:15:46.084Z,14.00
2019-04-10T11:16:45.878Z,13.90
2019-04-10T11:17:46.110Z,13.50
2019-04-10T11:18:46.879Z,14.30
2019-04-10T11:19:47.315Z,13.90
2019-04-10T11:20:46.000Z,13.60
2019-04-10T11:21:47.074Z,12.70
2019-04-10T11:22:47.347Z,13.70
2019-04-10T11:23:46.847Z,12.80
2019-04-10T11:24:47.130Z,12.30
2019-04-10T11:25:46.520Z,12.70
2019-04-10T11:26:46.332Z,13.30
2019-04-10T11:27:47.429Z,13.50
2019-04-10T11:28:47.796Z,14.00
2019-04-10T11:29:46.763Z,13.80
2019-04-10T11:30:47.484Z,13.60
2019-04-10T11:31:47.026Z,13.90
2019-04-10T11:32:46.491Z,13.70
2019-04-10T11:34:46.745Z,13.20
2019-04-10T11:35:47.619Z,13.40
2019-04-10T11:36:48.261Z,13.30
2019-04-10T11:37:49.607Z,13.70
2019-04-10T11:38:46.734Z,13.60
2019-04-10T11:39:48.213Z,14.00
2019-04-10T11:40:47.382Z,13.50
2019-04-10T11:41:49.094Z,13.10
2019-04-10T11:42:47.607Z,14.30
2019-04-10T11:43:48.040Z,14.50
2019-04-10T11:44:48.790Z,14.00
2019-04-10T11:45:52.464Z,13.90
2019-04-10T11:46:47.065Z,14.00
2019-04-10T11:47:48.250Z,14.00
2019-04-10T11:48:47.136Z,14.00
2019-04-10T11:49:48.914Z,14.30
2019-04-10T11:50:48.498Z,14.60
2019-04-10T11:51:48.669Z,14.10
2019-04-10T11:52:52.481Z,14.60
2019-04-10T11:53:51.444Z,15.50
2019-04-10T11:54:49.100Z,14.80
2019-04-10T11:55:51.064Z,14.60
2019-04-10T11:56:49.076Z,14.80
2019-04-10T11:57:49.081Z,14.80
2019-04-10T11:58:54.114Z,14.20
2019-04-10T11:59:49.013Z,14.30
2019-04-10T12:00:52.497Z,15.20
2019-04-10T12:01:48.860Z,14.40
2019-04-10T12:02:50.375Z,14.10
2019-04-10T12:03:51.475Z,14.20
2019-04-10T12:04:53.775Z,14.10
2019-04-10T12:05:50.069Z,14.80
2019-04-10T12:06:52.282Z,14.10
2019-04-10T12:08:10.711Z,14.30
2019-04-10T12:11:48.954Z,14.70
2019-04-10T12:12:48.228Z,14.70
2019-04-10T12:13:48.325Z,16.20
2019-04-10T12:14:48.197Z,15.20
2019-04-10T12:15:48.430Z,14.50
2019-04-10T12:16:49.396Z,15.50
2019-04-10T12:17:48.312Z,15.70
2019-04-10T12:18:48.867Z,15.80
2019-04-10T12:19:48.741Z,15.70
2019-04-10T12:20:49.261Z,14.30
2019-04-10T12:21:48.750Z,15.80
2019-04-10T12:22:48.519Z,15.50
2019-04-10T12:23:50.047Z,14.80
2019-04-10T12:24:49.984Z,16.10
2019-04-10T12:25:49.376Z,15.90
2019-04-10T12:26:49.791Z,15.50
2019-04-10T12:27:49.444Z,15.70
2019-04-10T12:28:49.907Z,15.70
2019-04-10T12:29:48.898Z,15.30
2019-04-10T12:30:48.847Z,15.10
2019-04-10T12:31:48.892Z,14.10
2019-04-10T12:32:49.314Z,14.10
2019-04-10T12:33:48.984Z,15.00
2019-04-10T12:34:49.024Z,14.30
2019-04-10T12:35:49.950Z,14.40
2019-04-10T12:36:49.111Z,14.80
2019-04-10T12:37:58.623Z,15.40
2019-04-10T12:38:49.833Z,14.80
2019-04-10T12:39:49.489Z,14.70
2019-04-10T12:40:49.262Z,13.90
2019-04-10T12:41:50.004Z,13.60
2019-04-10T12:42:49.349Z,14.90
2019-04-10T12:43:49.388Z,15.00
2019-04-10T12:44:49.436Z,14.50
2019-04-10T12:45:50.627Z,13.70
2019-04-10T12:46:49.522Z,13.60
2019-04-10T12:47:50.262Z,13.70
2019-04-10T12:48:50.662Z,13.20
2019-04-10T12:49:49.894Z,13.00
2019-04-10T12:50:49.684Z,13.60
2019-04-10T12:51:49.995Z,12.70
2019-04-10T12:52:49.790Z,13.10
2019-04-10T12:53:49.899Z,13.20
2019-04-10T12:54:49.851Z,12.80
2019-04-10T12:55:49.896Z,12.80
2019-04-10T12:56:50.555Z,12.30